Louisburg, North Carolina
Current Conditions -  °F | °C
As of 4:55 AM on Monday 22 Dec 2014 (Local Time) from KLHZ Reporting Station
Drizzle Drizzle  
Wind Chill: 30°   Ceiling: 2000
Heat Index: 36°   Visibility: 5mi
Dew Point: 34°   Wind: 7mph
Humidity: 93%   Direction: 350°N
Pressure: 30.16"   Gusts: NA
Location:  36.1°N, 78.3°W
Report Text: KLHZ 220955Z AUTO 35006KT 5SM -DZ OVC020 02/01 A3016 RMK AO2 P0001
Loading
Personal Weather Stations






























Interactive Weather Map New forecast layout! Learn more

10-Day Weather Forecast

Advertisements
Track Severe Weather on mobile